Time;durP1;ratioP1;P1;durP2;ratioP2;P2;SDS_P1;SDS_P2;PMS_P1;PMS_P2;Temp;Humidity;BMP_temperature;BMP_pressure;BME280_temperature;BME280_humidity;BME280_pressure;Samples;Min_cycle;Max_cycle;Signal;HPM_P1;HPM_P2
2021/05/18 00:00:12;;;;;;;1.25;1.15;;;9.80;91.50;;;;;;5054121;28;20057;-78
2021/05/18 00:02:37;;;;;;;1.05;0.85;;;9.80;91.50;;;;;;5053347;28;20017;-77
2021/05/18 00:05:06;;;;;;;0.63;0.63;;;9.80;91.50;;;;;;5053923;28;20095;-78
2021/05/18 00:07:32;;;;;;;0.93;0.77;;;9.90;91.40;;;;;;5053906;28;20082;-78
2021/05/18 00:12:42;;;;;;;0.70;0.70;;;9.90;91.30;;;;;;5053682;28;20047;-77
2021/05/18 00:15:13;;;;;;;0.70;0.65;;;9.90;91.30;;;;;;5053934;28;20021;-77
2021/05/18 00:17:39;;;;;;;0.60;0.60;;;9.90;91.30;;;;;;5053957;28;20025;-77
2021/05/18 00:20:08;;;;;;;1.27;1.10;;;9.90;91.20;;;;;;5053823;28;20071;-76
2021/05/18 00:22:34;;;;;;;1.90;1.20;;;9.90;91.20;;;;;;5035972;28;20017;-77
2021/05/18 00:24:59;;;;;;;1.55;1.05;;;9.90;91.20;;;;;;5053797;28;20036;-76
2021/05/18 00:27:28;;;;;;;1.23;1.10;;;9.90;91.30;;;;;;5053171;28;20053;-77
2021/05/18 00:29:54;;;;;;;2.05;1.20;;;9.80;91.20;;;;;;5053644;28;20021;-77
2021/05/18 00:32:20;;;;;;;1.67;0.95;;;9.80;91.30;;;;;;5053423;28;20409;-78
2021/05/18 00:34:46;;;;;;;0.80;0.77;;;9.80;91.30;;;;;;5053755;28;20029;-77
2021/05/18 00:37:13;;;;;;;2.03;1.00;;;9.80;91.30;;;;;;5053650;28;20024;-77
2021/05/18 00:39:39;;;;;;;1.20;1.10;;;9.80;91.30;;;;;;5053458;28;20129;-77
2021/05/18 00:42:22;;;;;;;0.55;0.55;;;9.70;91.20;;;;;;5053263;28;20513;-77
2021/05/18 00:44:53;;;;;;;1.42;0.93;;;9.70;91.20;;;;;;5053546;28;20395;-77
2021/05/18 00:47:18;;;;;;;1.60;1.50;;;9.70;91.30;;;;;;5053377;28;20045;-77
2021/05/18 00:49:44;;;;;;;1.30;1.20;;;9.70;91.20;;;;;;5053413;28;20059;-77
2021/05/18 00:52:10;;;;;;;1.42;1.05;;;9.70;91.20;;;;;;5053247;28;20477;-77
2021/05/18 00:55:05;;;;;;;0.60;0.60;;;9.70;91.30;;;;;;5053351;28;20035;-78
2021/05/18 01:00:08;;;;;;;0.95;0.75;;;9.80;91.30;;;;;;5053586;28;20086;-77
2021/05/18 01:02:34;;;;;;;1.98;0.80;;;9.80;91.20;;;;;;5053213;28;20423;-77
2021/05/18 01:05:18;;;;;;;1.02;0.85;;;9.80;91.20;;;;;;5053105;28;20117;-77
2021/05/18 01:07:43;;;;;;;1.23;1.10;;;9.80;91.20;;;;;;5053091;28;20031;-76
2021/05/18 01:10:10;;;;;;;0.93;0.70;;;9.90;91.20;;;;;;5034687;28;20408;-78
2021/05/18 01:12:35;;;;;;;1.00;0.73;;;9.90;91.10;;;;;;5035153;28;20029;-76
2021/05/18 01:15:01;;;;;;;1.40;0.70;;;9.90;91.10;;;;;;5035206;28;20063;-77
2021/05/18 01:17:27;;;;;;;1.45;1.17;;;9.90;91.10;;;;;;5053255;28;20139;-77
2021/05/18 01:19:52;;;;;;;0.80;0.80;;;9.90;91.10;;;;;;5053203;28;20024;-77
2021/05/18 01:22:18;;;;;;;0.80;0.80;;;9.90;91.20;;;;;;5052971;28;20103;-78
2021/05/18 01:24:43;;;;;;;2.33;1.35;;;9.90;91.20;;;;;;5052602;28;20024;-77
2021/05/18 01:27:09;;;;;;;1.30;0.95;;;9.90;91.20;;;;;;5053082;28;20040;-78
2021/05/18 01:29:35;;;;;;;2.00;1.38;;;9.90;91.30;;;;;;5052967;28;20044;-78
2021/05/18 01:32:02;;;;;;;1.20;1.08;;;9.80;91.30;;;;;;5052920;28;20072;-77
2021/05/18 01:34:27;;;;;;;1.05;0.90;;;9.90;91.40;;;;;;5052939;28;20022;-77
2021/05/18 01:36:53;;;;;;;1.58;1.20;;;9.90;91.40;;;;;;5052736;28;20021;-78
2021/05/18 01:44:29;;;;;;;1.23;1.15;;;10.10;91.30;;;;;;5033142;28;20465;-77
2021/05/18 01:46:57;;;;;;;1.02;1.00;;;10.10;91.20;;;;;;5032903;28;20109;-76
2021/05/18 01:49:23;;;;;;;1.17;0.90;;;10.20;91.20;;;;;;5032810;28;20030;-77
2021/05/18 01:51:54;;;;;;;1.33;0.93;;;10.20;91.10;;;;;;5032929;28;20083;-77
2021/05/18 01:54:29;;;;;;;0.90;0.90;;;10.30;91.10;;;;;;5032455;28;20025;-76
2021/05/18 01:59:27;;;;;;;1.00;0.90;;;10.30;91.10;;;;;;5032780;28;20029;-76
2021/05/18 02:02:02;;;;;;;2.63;1.10;;;10.40;91.10;;;;;;5032903;28;20030;-76
2021/05/18 02:04:31;;;;;;;1.20;1.00;;;10.40;91.00;;;;;;5032450;28;20548;-76
2021/05/18 02:06:58;;;;;;;0.95;0.90;;;10.40;91.00;;;;;;5032686;28;20025;-76
2021/05/18 02:09:25;;;;;;;1.25;0.85;;;10.40;91.00;;;;;;5032413;28;20034;-76
2021/05/18 02:11:51;;;;;;;1.38;1.08;;;10.50;91.00;;;;;;5032653;28;20049;-76
2021/05/18 02:14:26;;;;;;;0.90;0.90;;;10.50;91.00;;;;;;5032698;28;20513;-75
2021/05/18 02:16:55;;;;;;;1.00;0.95;;;10.60;91.00;;;;;;5032450;28;20022;-76
2021/05/18 02:19:30;;;;;;;0.90;0.85;;;10.60;91.00;;;;;;5032485;28;20021;-77
2021/05/18 02:27:02;;;;;;;1.40;1.17;;;10.70;90.90;;;;;;5035829;28;20378;-76
2021/05/18 02:29:28;;;;;;;1.40;1.27;;;10.70;90.90;;;;;;5036159;28;20487;-76
2021/05/18 02:31:55;;;;;;;0.95;0.88;;;10.80;90.90;;;;;;5035907;28;20478;-76
2021/05/18 02:34:21;;;;;;;1.10;0.70;;;10.80;91.00;;;;;;5035895;28;20204;-76
2021/05/18 02:36:47;;;;;;;1.25;1.00;;;10.80;90.90;;;;;;5035501;28;20116;-76
2021/05/18 02:39:12;;;;;;;1.27;1.17;;;10.80;90.90;;;;;;5035920;28;20026;-78
2021/05/18 02:41:38;;;;;;;1.40;1.00;;;10.80;90.90;;;;;;5035820;28;20017;-77
2021/05/18 02:44:09;;;;;;;1.45;1.20;;;10.90;91.00;;;;;;5035759;28;20506;-77
2021/05/18 02:49:18;;;;;;;1.60;1.00;;;10.90;91.00;;;;;;5035833;28;20040;-77
2021/05/18 02:51:46;;;;;;;0.98;0.77;;;10.90;91.00;;;;;;5035164;28;20017;-77
2021/05/18 02:54:13;;;;;;;1.38;0.90;;;10.90;91.10;;;;;;5035629;28;20025;-77
2021/05/18 03:01:33;;;;;;;1.27;1.10;;;11.00;91.10;;;;;;5035674;28;20489;-77
2021/05/18 03:03:59;;;;;;;1.58;1.17;;;11.00;91.10;;;;;;5035266;28;20107;-77
2021/05/18 03:06:25;;;;;;;2.00;1.10;;;11.00;91.10;;;;;;5034969;28;20018;-76
2021/05/18 03:08:51;;;;;;;1.45;1.10;;;11.10;91.10;;;;;;5035368;28;20903;-77
2021/05/18 03:11:17;;;;;;;1.50;1.40;;;11.10;91.10;;;;;;5035364;28;20034;-76
2021/05/18 03:13:43;;;;;;;2.63;1.35;;;11.10;91.10;;;;;;5035300;28;20038;-78
2021/05/18 03:16:08;;;;;;;1.05;0.73;;;11.10;91.00;;;;;;5035051;28;20026;-77
2021/05/18 03:18:34;;;;;;;1.52;1.13;;;11.10;91.00;;;;;;5035339;28;20109;-77
2021/05/18 03:21:00;;;;;;;2.88;1.10;;;11.10;91.00;;;;;;5034717;28;20025;-77
2021/05/18 03:23:26;;;;;;;1.60;1.23;;;11.20;91.10;;;;;;5034948;28;20065;-76
2021/05/18 03:25:52;;;;;;;1.17;1.08;;;11.20;91.10;;;;;;5035214;28;20101;-75
2021/05/18 03:28:20;;;;;;;0.98;0.95;;;11.20;91.10;;;;;;5034886;28;20033;-77
2021/05/18 03:36:10;;;;;;;1.25;0.77;;;11.30;91.10;;;;;;5033850;28;20075;-75
2021/05/18 03:38:44;;;;;;;1.40;1.23;;;11.30;91.00;;;;;;5034203;28;20022;-76
2021/05/18 03:41:15;;;;;;;1.50;1.00;;;11.40;91.10;;;;;;5034718;28;20017;-75
2021/05/18 03:43:54;;;;;;;2.17;1.20;;;11.30;91.10;;;;;;5037856;28;20028;-75
2021/05/18 04:02:41;;;;;;;1.95;1.45;;;11.30;91.10;;;;;;5034510;28;20032;-75
2021/05/18 04:18:38;;;;;;;2.28;1.58;;;11.30;91.30;;;;;;5033713;28;20084;-77
2021/05/18 04:21:11;;;;;;;2.45;1.77;;;11.40;91.30;;;;;;5034094;28;20378;-76
2021/05/18 04:26:23;;;;;;;2.20;1.42;;;11.40;91.30;;;;;;5034067;28;20029;-76
2021/05/18 04:40:22;;;;;;;2.20;1.73;;;11.30;91.30;;;;;;5033593;28;20398;-76
2021/05/18 04:48:20;;;;;;;2.65;1.75;;;11.30;91.40;;;;;;5033824;28;20033;-77
2021/05/18 04:53:22;;;;;;;2.22;1.88;;;11.40;91.40;;;;;;5033696;28;20050;-76
2021/05/18 05:06:44;;;;;;;2.03;1.30;;;11.50;91.40;;;;;;5033278;28;20026;-77
2021/05/18 05:14:32;;;;;;;1.73;1.55;;;11.50;91.60;;;;;;5033224;28;20091;-76
2021/05/18 05:16:57;;;;;;;2.00;1.25;;;11.40;91.60;;;;;;5031429;28;20021;-77
2021/05/18 05:19:27;;;;;;;4.45;1.70;;;11.40;91.70;;;;;;5033222;28;20022;-77
2021/05/18 05:21:53;;;;;;;1.63;1.45;;;11.40;91.80;;;;;;5032970;28;20020;-77
2021/05/18 05:24:18;;;;;;;2.08;1.38;;;11.40;91.80;;;;;;5033153;28;20029;-77
2021/05/18 05:26:44;;;;;;;2.10;1.63;;;11.50;91.80;;;;;;5032965;28;20063;-78
2021/05/18 05:29:10;;;;;;;1.88;1.38;;;11.40;91.80;;;;;;5033056;28;20477;-76
2021/05/18 05:31:37;;;;;;;1.73;1.20;;;11.40;91.80;;;;;;5032546;28;20485;-78
2021/05/18 05:34:03;;;;;;;1.48;1.38;;;11.40;91.80;;;;;;5032851;28;20030;-77
2021/05/18 05:36:29;;;;;;;1.60;1.50;;;11.40;91.80;;;;;;5032987;28;20099;-76
2021/05/18 05:39:01;;;;;;;3.00;2.00;;;11.50;91.80;;;;;;5032885;28;20535;-78
2021/05/18 05:41:27;;;;;;;1.55;1.45;;;11.50;91.80;;;;;;5032937;28;20476;-79
2021/05/18 05:43:52;;;;;;;1.80;1.40;;;11.50;91.80;;;;;;5036016;28;20033;-80
2021/05/18 05:46:18;;;;;;;1.88;1.58;;;11.50;91.80;;;;;;5031645;28;20030;-81
2021/05/18 05:48:43;;;;;;;4.05;2.67;;;11.60;91.80;;;;;;5033429;28;20081;-82
2021/05/18 05:51:09;;;;;;;3.80;2.65;;;11.60;91.80;;;;;;5032573;28;20022;-82
2021/05/18 05:53:34;;;;;;;3.92;2.60;;;11.60;91.70;;;;;;5032686;28;20470;-80
2021/05/18 05:56:00;;;;;;;4.22;2.75;;;11.60;91.80;;;;;;5032771;28;20017;-81
2021/05/18 05:58:28;;;;;;;4.80;3.05;;;11.60;91.80;;;;;;5032976;28;20458;-81
2021/05/18 06:00:53;;;;;;;4.80;2.88;;;11.70;91.80;;;;;;5038204;28;20070;-81
2021/05/18 06:03:19;;;;;;;4.57;3.10;;;11.70;91.80;;;;;;5056544;28;20469;-79
2021/05/18 06:05:44;;;;;;;3.58;2.65;;;11.80;91.70;;;;;;5038367;28;20583;-79
2021/05/18 06:08:10;;;;;;;3.33;1.85;;;11.90;91.70;;;;;;5038416;28;20028;-78
2021/05/18 06:10:41;;;;;;;2.38;1.90;;;12.10;91.60;;;;;;5056290;28;20028;-81
2021/05/18 06:42:40;;;;;;;3.67;2.40;;;12.50;91.60;;;;;;5016283;28;20168;-78
2021/05/18 06:48:07;;;;;;;3.22;2.20;;;12.80;91.60;;;;;;4974731;28;20035;-78
2021/05/18 06:50:33;;;;;;;3.28;2.08;;;13.00;91.40;;;;;;4974784;28;20386;-78
2021/05/18 06:52:59;;;;;;;2.55;2.00;;;13.10;91.40;;;;;;4974758;28;20414;-79
2021/05/18 06:55:29;;;;;;;3.08;2.53;;;13.20;91.30;;;;;;4974624;28;20042;-79
2021/05/18 06:58:03;;;;;;;2.08;1.55;;;13.30;91.20;;;;;;4945316;29;20489;-79
2021/05/18 07:00:28;;;;;;;2.88;2.10;;;13.40;91.20;;;;;;4955492;29;20031;-79
2021/05/18 07:02:57;;;;;;;4.05;2.35;;;13.40;91.20;;;;;;4955252;29;20047;-78
2021/05/18 07:07:55;;;;;;;2.53;1.88;;;13.40;91.40;;;;;;4955224;29;20130;-78
2021/05/18 07:10:21;;;;;;;3.20;2.15;;;13.50;91.30;;;;;;4955034;29;20080;-78
2021/05/18 07:12:47;;;;;;;2.95;1.92;;;13.60;91.20;;;;;;4954027;28;20463;-79
2021/05/18 07:15:13;;;;;;;3.50;2.17;;;13.70;91.30;;;;;;4955210;29;20039;-78
2021/05/18 07:17:39;;;;;;;4.15;2.72;;;13.90;91.20;;;;;;4939033;29;20507;-77
2021/05/18 07:20:05;;;;;;;4.85;2.08;;;14.00;91.00;;;;;;4955142;29;20027;-78
2021/05/18 07:22:30;;;;;;;3.17;2.33;;;14.00;90.90;;;;;;5009336;28;20123;-78
2021/05/18 07:24:56;;;;;;;3.45;2.33;;;14.00;91.00;;;;;;5017311;28;20508;-74
2021/05/18 07:27:22;;;;;;;5.38;3.03;;;13.80;91.10;;;;;;5034686;28;20160;-77
2021/05/18 07:29:47;;;;;;;4.20;2.53;;;13.70;91.20;;;;;;5034956;28;20024;-76
2021/05/18 07:32:13;;;;;;;3.03;2.47;;;13.40;91.40;;;;;;5017006;28;20480;-76
2021/05/18 07:34:38;;;;;;;3.08;2.05;;;13.00;91.80;;;;;;5017023;28;20083;-75
2021/05/18 07:37:04;;;;;;;2.40;1.50;;;12.70;92.00;;;;;;5034592;28;20073;-76
2021/05/18 07:39:30;;;;;;;2.15;1.52;;;12.50;92.30;;;;;;5016905;28;20418;-76
2021/05/18 07:41:55;;;;;;;1.30;1.20;;;12.20;92.50;;;;;;5034346;28;20030;-76
2021/05/18 07:44:21;;;;;;;1.23;1.10;;;12.10;92.60;;;;;;5045159;28;20060;-75
2021/05/18 07:46:47;;;;;;;1.10;0.80;;;11.90;92.60;;;;;;5054527;28;20016;-77
2021/05/18 07:49:24;;;;;;;2.00;1.23;;;11.80;92.60;;;;;;5054533;28;20031;-76
2021/05/18 07:59:14;;;;;;;1.45;1.30;;;11.70;92.70;;;;;;5054638;28;20473;-75
2021/05/18 08:05:29;;;;;;;1.42;1.33;;;11.80;92.70;;;;;;5034014;28;20392;-76
2021/05/18 08:07:55;;;;;;;1.92;1.27;;;11.90;92.30;;;;;;5034183;28;20499;-76
2021/05/18 08:11:03;;;;;;;1.73;1.23;;;12.10;92.20;;;;;;5033783;28;20053;-76
2021/05/18 08:13:09;;;;;;;1.17;1.08;;;12.20;92.10;;;;;;5029579;28;20045;-76
2021/05/18 08:18:25;;;;;;;2.05;1.50;;;12.60;92.00;;;;;;5034226;28;20030;-76
2021/05/18 08:21:26;;;;;;;2.10;1.67;;;12.80;91.80;;;;;;5034018;28;20032;-76
2021/05/18 08:58:24;;;;;;;;;;;13.60;91.80;;;;;;5033449;28;20033;-76
2021/05/18 09:02:13;;;;;;;3.55;2.67;;;13.60;91.80;;;;;;5033123;28;20008;-76
2021/05/18 09:29:26;;;;;;;4.07;2.33;;;13.60;91.90;;;;;;4991435;28;20141;-76
2021/05/18 09:34:48;;;;;;;3.83;2.70;;;13.00;92.40;;;;;;4991831;28;20122;-78
2021/05/18 09:37:58;;;;;;;4.40;2.83;;;12.90;92.70;;;;;;5026349;28;20128;-78
2021/05/18 09:50:53;;;;;;;3.35;2.30;;;13.50;92.10;;;;;;5036711;28;20030;-76
2021/05/18 10:36:11;;;;;;;3.83;2.00;;;14.10;91.40;;;;;;4954965;29;20071;-74
2021/05/18 10:38:45;;;;;;;;;;;14.00;91.60;;;;;;4967741;28;20027;-72
2021/05/18 10:41:17;;;;;;;3.75;2.50;;;14.00;91.40;;;;;;4975430;28;19996;-73
2021/05/18 10:44:01;;;;;;;3.30;2.13;;;14.10;91.40;;;;;;4975047;28;20039;-72
2021/05/18 10:46:30;;;;;;;2.17;1.52;;;14.20;91.30;;;;;;4974275;28;20042;-72
2021/05/18 10:49:16;;;;;;;2.15;1.45;;;14.40;91.10;;;;;;4989569;28;20069;-73
2021/05/18 10:51:49;;;;;;;3.28;1.83;;;14.60;91.00;;;;;;5015503;28;20109;-73
2021/05/18 10:54:20;;;;;;;3.05;2.03;;;14.80;90.80;;;;;;5016125;28;20532;-73
2021/05/18 10:56:55;;;;;;;1.70;1.42;;;14.90;90.70;;;;;;5014617;28;20544;-73
2021/05/18 10:59:21;;;;;;;2.70;1.80;;;15.00;90.70;;;;;;5015749;28;20049;-73
2021/05/18 11:01:48;;;;;;;2.22;1.55;;;15.10;90.80;;;;;;5015593;28;20032;-74
2021/05/18 11:04:14;;;;;;;2.42;1.85;;;15.20;90.60;;;;;;4997630;28;20125;-74
2021/05/18 11:07:10;;;;;;;2.83;1.50;;;15.20;90.60;;;;;;5015684;28;20056;-75
2021/05/18 11:09:37;;;;;;;3.97;2.28;;;15.30;90.70;;;;;;5034668;28;20041;-77
2021/05/18 11:12:24;;;;;;;2.05;1.52;;;15.40;90.70;;;;;;5035284;28;20033;-73
2021/05/18 11:15:02;;;;;;;2.75;2.10;;;15.50;90.80;;;;;;5035433;28;20017;-76
2021/05/18 11:17:36;;;;;;;1.70;1.50;;;15.80;90.80;;;;;;5035304;28;20029;-76
2021/05/18 11:26:01;;;;;;;1.35;1.20;;;16.20;90.60;;;;;;5034352;28;20024;-75
2021/05/18 11:28:33;;;;;;;1.30;1.15;;;16.30;90.40;;;;;;5033839;28;20029;-78
2021/05/18 11:31:02;;;;;;;1.10;1.00;;;16.30;90.30;;;;;;5027863;28;20044;-76
2021/05/18 11:33:30;;;;;;;1.10;1.00;;;16.30;90.40;;;;;;5034374;28;20159;-75
2021/05/18 11:36:00;;;;;;;1.13;1.00;;;16.70;90.50;;;;;;5034694;28;20187;-75
2021/05/18 11:38:27;;;;;;;0.82;0.82;;;17.30;89.50;;;;;;5034741;28;20034;-76
2021/05/18 11:40:52;;;;;;;0.85;0.82;;;17.90;88.70;;;;;;5034733;28;20485;-76
2021/05/18 11:43:21;;;;;;;1.10;1.00;;;18.60;87.30;;;;;;5034512;28;20029;-74
2021/05/18 11:45:50;;;;;;;0.77;0.77;;;19.10;86.40;;;;;;5034761;28;20028;-76
2021/05/18 11:48:18;;;;;;;1.93;0.90;;;19.40;85.80;;;;;;5034198;28;20049;-77
2021/05/18 11:50:44;;;;;;;1.33;1.00;;;19.60;85.90;;;;;;5034417;28;20017;-76
2021/05/18 11:53:28;;;;;;;1.55;0.90;;;19.40;85.30;;;;;;5034414;28;20080;-76
2021/05/18 11:55:53;;;;;;;1.23;1.13;;;18.90;85.90;;;;;;5033519;28;20461;-75
2021/05/18 11:58:20;;;;;;;1.95;1.63;;;18.40;87.00;;;;;;4998197;28;20046;-73
2021/05/18 12:00:45;;;;;;;4.50;3.10;;;18.00;87.50;;;;;;5027434;28;20116;-74
2021/05/18 12:03:12;;;;;;;4.63;3.15;;;17.30;86.70;;;;;;5031116;28;20032;-77
2021/05/18 12:05:56;;;;;;;4.15;2.63;;;16.20;88.20;;;;;;5031520;28;20061;-75
2021/05/18 12:08:32;;;;;;;3.33;2.28;;;15.30;90.00;;;;;;5031506;28;20033;-75
2021/05/18 12:11:18;;;;;;;2.25;1.65;;;14.60;90.40;;;;;;5031161;28;20377;-75
2021/05/18 12:13:49;;;;;;;1.55;1.45;;;14.00;90.90;;;;;;5031093;28;20037;-75
2021/05/18 12:16:17;;;;;;;2.40;1.80;;;13.80;91.10;;;;;;5031063;28;20018;-74
2021/05/18 12:18:57;;;;;;;1.92;1.40;;;13.80;91.40;;;;;;5080415;27;697052;-76
2021/05/18 12:21:29;;;;;;;1.08;1.08;;;14.20;91.30;;;;;;5087759;28;20037;-75
2021/05/18 12:24:19;;;;;;;1.17;0.90;;;14.90;90.80;;;;;;5077237;28;20414;-74
2021/05/18 12:26:49;;;;;;;0.77;0.77;;;15.70;90.10;;;;;;5090220;28;20097;-73
2021/05/18 12:29:28;;;;;;;1.60;1.50;;;16.50;89.00;;;;;;5087747;28;20033;-75
2021/05/18 12:31:56;;;;;;;2.40;1.77;;;17.00;86.60;;;;;;5095915;28;20102;-73
2021/05/18 12:34:29;;;;;;;2.50;1.77;;;16.90;87.10;;;;;;5103405;28;20347;-74
2021/05/18 12:36:55;;;;;;;1.63;1.50;;;17.10;87.30;;;;;;5087306;28;20047;-74
2021/05/18 12:39:21;;;;;;;1.90;1.05;;;17.20;87.30;;;;;;5087596;28;20225;-75
2021/05/18 12:41:49;;;;;;;1.45;1.27;;;17.50;87.50;;;;;;5068808;28;20391;-75
2021/05/18 12:44:15;;;;;;;2.28;1.50;;;17.90;86.70;;;;;;5095469;28;20012;-73
2021/05/18 12:46:52;;;;;;;1.30;1.20;;;17.90;86.10;;;;;;5100435;28;20024;-75
2021/05/18 12:49:26;;;;;;;1.05;0.98;;;18.00;86.80;;;;;;5095438;28;20110;-74
2021/05/18 12:52:03;;;;;;;1.23;0.88;;;18.50;86.40;;;;;;5095207;28;20143;-74
2021/05/18 12:54:37;;;;;;;0.90;0.90;;;19.00;85.60;;;;;;5103182;28;20059;-73
2021/05/18 12:57:03;;;;;;;0.80;0.80;;;19.60;84.80;;;;;;5101895;28;20043;-73
2021/05/18 12:59:29;;;;;;;1.27;0.75;;;20.10;83.90;;;;;;5109725;28;20588;-74
2021/05/18 13:01:54;;;;;;;0.93;0.80;;;20.30;83.70;;;;;;5107997;28;20024;-73
2021/05/18 13:04:20;;;;;;;0.60;0.60;;;20.50;84.00;;;;;;5102790;28;20020;-77
2021/05/18 13:06:47;;;;;;;2.58;1.45;;;20.70;83.40;;;;;;5089757;28;20468;-75
2021/05/18 13:09:21;;;;;;;1.85;1.60;;;20.80;82.70;;;;;;5089847;28;20024;-76
2021/05/18 13:14:57;;;;;;;1.77;1.45;;;19.70;84.10;;;;;;5089396;28;20040;-76
2021/05/18 13:17:23;;;;;;;3.67;2.25;;;18.90;85.70;;;;;;5067761;28;20048;-75
2021/05/18 13:20:08;;;;;;;3.60;2.42;;;18.00;86.20;;;;;;5069296;28;20021;-75
2021/05/18 13:22:36;;;;;;;3.25;2.45;;;17.20;87.60;;;;;;5069214;28;20032;-77
2021/05/18 13:27:56;;;;;;;1.83;1.55;;;16.90;89.60;;;;;;5068127;28;20103;-76
2021/05/18 13:30:24;;;;;;;3.03;2.00;;;17.90;87.90;;;;;;5054922;28;20485;-76
2021/05/18 13:32:50;;;;;;;3.15;2.47;;;18.50;84.90;;;;;;5056132;28;20025;-76
2021/05/18 13:35:17;;;;;;;2.63;2.13;;;18.20;84.90;;;;;;5054744;28;20021;-75
2021/05/18 13:37:43;;;;;;;3.20;2.38;;;17.90;85.30;;;;;;5055259;28;20025;-80
2021/05/18 13:40:11;;;;;;;2.25;1.90;;;17.70;85.90;;;;;;5055565;28;20021;-76
2021/05/18 13:42:37;;;;;;;3.47;2.25;;;17.50;86.20;;;;;;5055772;28;20024;-76
2021/05/18 13:45:03;;;;;;;4.13;3.30;;;17.20;86.60;;;;;;5055320;28;20143;-76
2021/05/18 13:47:28;;;;;;;4.65;3.65;;;17.40;86.00;;;;;;5063876;28;20043;-75
2021/05/18 13:49:54;;;;;;;4.57;2.97;;;17.40;85.60;;;;;;5075642;28;20012;-76
2021/05/18 13:52:19;;;;;;;3.25;2.75;;;17.30;85.80;;;;;;5074099;28;20501;-74
2021/05/18 13:54:45;;;;;;;2.60;2.15;;;17.50;86.20;;;;;;5075405;28;20021;-76
2021/05/18 13:57:10;;;;;;;1.90;1.70;;;18.10;85.00;;;;;;5075216;28;20075;-76
2021/05/18 13:59:36;;;;;;;1.83;1.48;;;18.80;83.90;;;;;;5075019;28;20016;-77
2021/05/18 14:02:02;;;;;;;1.10;1.02;;;19.20;82.70;;;;;;5075362;28;20036;-77
2021/05/18 14:04:27;;;;;;;2.20;1.58;;;19.00;82.60;;;;;;5075334;28;20070;-76
2021/05/18 14:09:50;;;;;;;1.98;1.60;;;18.20;83.90;;;;;;5072086;28;20131;-77
2021/05/18 14:12:15;;;;;;;2.22;1.95;;;17.70;84.70;;;;;;5074992;28;20048;-76
2021/05/18 14:14:43;;;;;;;2.90;2.33;;;17.40;84.30;;;;;;5073433;28;20111;-77
2021/05/18 14:17:09;;;;;;;2.65;2.30;;;17.00;85.10;;;;;;5079127;28;20047;-78
2021/05/18 14:19:34;;;;;;;1.73;1.52;;;16.70;85.90;;;;;;5094919;28;20016;-77
2021/05/18 14:22:01;;;;;;;3.67;2.67;;;16.60;86.70;;;;;;5095208;28;20345;-76
2021/05/18 14:24:38;;;;;;;2.45;2.00;;;16.50;85.40;;;;;;5094782;28;20567;-77
2021/05/18 14:27:07;;;;;;;2.17;1.90;;;16.40;85.70;;;;;;5094028;28;20031;-77
2021/05/18 14:29:34;;;;;;;1.85;1.48;;;16.60;85.70;;;;;;5081757;28;20418;-80
2021/05/18 14:32:00;;;;;;;1.73;1.63;;;16.80;84.90;;;;;;5074589;28;20377;-78
2021/05/18 14:34:25;;;;;;;2.05;1.67;;;16.80;84.70;;;;;;5074638;28;20031;-76
2021/05/18 14:36:51;;;;;;;1.95;1.70;;;16.80;84.90;;;;;;5065295;28;20257;-76
2021/05/18 14:39:23;;;;;;;2.08;1.63;;;17.10;84.10;;;;;;5066582;28;20031;-77
2021/05/18 14:44:32;;;;;;;1.70;1.30;;;17.60;83.10;;;;;;5074338;28;20063;-76
2021/05/18 14:47:10;;;;;;;1.58;1.48;;;17.60;82.70;;;;;;5074314;28;20024;-82
2021/05/18 14:55:11;;;;;;;1.95;1.20;;;17.70;82.80;;;;;;5080553;28;20392;-76
2021/05/18 14:57:36;;;;;;;2.15;1.40;;;17.60;82.40;;;;;;5075306;28;20514;-78
2021/05/18 15:00:03;;;;;;;1.40;1.20;;;17.50;82.50;;;;;;5080510;28;20028;-76
2021/05/18 15:02:29;;;;;;;1.00;0.90;;;17.40;82.50;;;;;;5074050;28;20036;-76
2021/05/18 15:04:55;;;;;;;1.05;0.90;;;17.40;82.40;;;;;;5074046;28;20020;-76
2021/05/18 15:07:20;;;;;;;1.00;0.90;;;17.30;82.20;;;;;;5073911;28;20499;-76
2021/05/18 15:09:46;;;;;;;1.10;1.00;;;17.30;82.20;;;;;;5085792;28;20055;-76
2021/05/18 15:12:12;;;;;;;1.60;0.77;;;17.30;82.60;;;;;;5093157;28;20031;-77
2021/05/18 15:14:38;;;;;;;1.02;0.80;;;17.30;82.50;;;;;;5093256;28;20391;-79
2021/05/18 15:17:04;;;;;;;0.75;0.75;;;17.20;81.50;;;;;;5094001;28;20055;-77
2021/05/18 15:19:30;;;;;;;0.90;0.90;;;17.00;81.60;;;;;;5084168;28;20025;-77
2021/05/18 15:21:58;;;;;;;0.77;0.77;;;16.90;81.70;;;;;;5088488;28;20103;-77
2021/05/18 15:24:25;;;;;;;0.95;0.82;;;16.70;82.10;;;;;;5086894;28;20047;-75
2021/05/18 15:26:50;;;;;;;1.02;0.70;;;16.80;82.20;;;;;;5075238;28;20050;-75
2021/05/18 15:29:16;;;;;;;0.52;0.52;;;17.10;81.70;;;;;;5093608;28;20028;-78
2021/05/18 15:31:44;;;;;;;0.80;0.80;;;17.60;80.90;;;;;;5075488;28;20023;-77
2021/05/18 15:34:10;;;;;;;2.17;0.80;;;17.90;79.70;;;;;;5076719;28;20090;-75
2021/05/18 15:36:38;;;;;;;0.88;0.82;;;18.10;79.80;;;;;;5089535;28;20020;-75
2021/05/18 15:39:05;;;;;;;1.02;0.95;;;18.50;79.10;;;;;;5058299;28;20466;-77
2021/05/18 15:41:30;;;;;;;0.77;0.77;;;18.80;78.70;;;;;;5075022;28;20020;-77
2021/05/18 15:43:56;;;;;;;0.82;0.60;;;19.20;78.20;;;;;;5075585;28;20116;-77
2021/05/18 15:46:23;;;;;;;0.40;0.40;;;19.70;77.50;;;;;;5082083;28;20025;-76
2021/05/18 15:48:48;;;;;;;0.40;0.40;;;20.10;76.80;;;;;;5074445;28;20048;-76
2021/05/18 15:51:14;;;;;;;0.80;0.80;;;20.30;75.80;;;;;;5082156;28;20461;-79
2021/05/18 15:53:40;;;;;;;1.05;0.80;;;19.80;76.30;;;;;;5076466;28;20388;-75
2021/05/18 15:56:07;;;;;;;0.63;0.63;;;19.20;77.80;;;;;;5075654;28;20039;-76
2021/05/18 15:58:34;;;;;;;0.80;0.50;;;18.80;78.50;;;;;;5072345;28;20492;-76
2021/05/18 16:00:59;;;;;;;0.60;0.60;;;18.60;79.30;;;;;;5093550;28;20142;-77
2021/05/18 16:03:25;;;;;;;0.63;0.63;;;18.90;78.80;;;;;;5093413;28;20106;-76
2021/05/18 16:05:51;;;;;;;1.05;0.70;;;19.10;78.40;;;;;;5093472;28;20091;-75
2021/05/18 16:10:56;;;;;;;0.75;0.55;;;19.80;77.60;;;;;;5090215;28;20032;-75
2021/05/18 16:13:22;;;;;;;0.63;0.45;;;19.90;76.50;;;;;;5093257;28;20092;-84
2021/05/18 16:15:48;;;;;;;1.33;0.40;;;19.70;76.60;;;;;;5084141;28;20154;-75
2021/05/18 16:18:14;;;;;;;0.45;0.45;;;19.10;77.10;;;;;;5093060;28;20055;-80
2021/05/18 16:20:41;;;;;;;0.30;0.30;;;18.60;78.80;;;;;;5093259;28;20032;-76
2021/05/18 16:23:06;;;;;;;0.38;0.38;;;18.70;79.00;;;;;;5074740;28;20099;-77
2021/05/18 16:25:32;;;;;;;0.43;0.40;;;18.70;78.70;;;;;;5073619;28;20482;-80
2021/05/18 16:27:58;;;;;;;0.80;0.65;;;18.80;79.30;;;;;;5072995;28;20037;-80
2021/05/18 16:30:23;;;;;;;1.08;0.70;;;19.30;78.50;;;;;;5073108;28;20051;-79
2021/05/18 16:32:49;;;;;;;0.38;0.38;;;19.40;78.50;;;;;;5073011;28;20017;-80
2021/05/18 16:35:15;;;;;;;0.47;0.47;;;19.30;78.60;;;;;;5073054;28;20492;-79
2021/05/18 16:37:40;;;;;;;0.45;0.45;;;19.10;78.90;;;;;;5083093;28;20024;-82
2021/05/18 16:40:07;;;;;;;0.43;0.43;;;19.20;79.20;;;;;;5085955;28;20028;-81
2021/05/18 16:42:35;;;;;;;0.57;0.57;;;19.10;79.00;;;;;;5058447;28;20027;-78
2021/05/18 16:45:02;;;;;;;0.63;0.40;;;18.70;79.10;;;;;;5061127;28;20029;-81
2021/05/18 16:47:28;;;;;;;0.85;0.57;;;18.60;80.10;;;;;;5074866;28;20036;-81
2021/05/18 16:49:53;;;;;;;0.88;0.65;;;18.80;79.70;;;;;;5093317;28;20091;-81
2021/05/18 16:52:19;;;;;;;0.63;0.57;;;18.90;79.60;;;;;;5074695;28;20032;-82
2021/05/18 16:54:44;;;;;;;0.85;0.80;;;19.00;79.80;;;;;;5070101;28;20032;-82
2021/05/18 16:57:10;;;;;;;0.40;0.40;;;18.90;79.10;;;;;;5091055;28;20043;-82
2021/05/18 16:59:36;;;;;;;0.45;0.35;;;18.60;79.20;;;;;;5080499;28;20016;-82
2021/05/18 17:02:02;;;;;;;0.55;0.52;;;18.40;80.00;;;;;;5074645;28;20028;-82
2021/05/18 17:04:27;;;;;;;0.60;0.60;;;18.70;80.10;;;;;;5083878;28;20017;-83
2021/05/18 17:06:54;;;;;;;0.22;0.22;;;18.90;80.00;;;;;;5076191;28;20500;-82
2021/05/18 17:09:20;;;;;;;0.30;0.30;;;19.10;79.90;;;;;;5058768;28;20012;-82
2021/05/18 17:11:46;;;;;;;0.95;0.80;;;18.90;79.20;;;;;;5076353;28;20035;-81
2021/05/18 17:14:12;;;;;;;0.73;0.65;;;18.40;79.00;;;;;;5080160;28;20047;-82
2021/05/18 17:16:39;;;;;;;1.20;0.52;;;17.90;79.80;;;;;;5086252;28;20047;-80
2021/05/18 17:19:05;;;;;;;1.50;0.75;;;17.70;80.00;;;;;;5060471;28;20036;-81
2021/05/18 17:21:30;;;;;;;0.68;0.43;;;17.40;80.10;;;;;;5084542;28;20035;-77
2021/05/18 17:23:56;;;;;;;0.63;0.50;;;17.40;80.10;;;;;;5096596;28;20024;-76
2021/05/18 17:26:22;;;;;;;0.63;0.50;;;17.30;79.60;;;;;;5096329;28;20027;-78
2021/05/18 17:28:47;;;;;;;0.85;0.55;;;17.30;79.30;;;;;;5096349;28;20442;-77
2021/05/18 17:31:15;;;;;;;0.60;0.60;;;17.10;78.90;;;;;;5091285;28;20078;-77
2021/05/18 17:33:41;;;;;;;0.50;0.40;;;17.00;78.90;;;;;;5096299;28;20322;-78
2021/05/18 17:36:08;;;;;;;0.47;0.47;;;16.80;78.60;;;;;;5095968;28;20116;-78
2021/05/18 17:38:33;;;;;;;0.40;0.40;;;16.50;78.50;;;;;;5096127;28;20488;-77
2021/05/18 17:41:01;;;;;;;0.60;0.60;;;16.30;78.70;;;;;;5096219;28;20031;-78
2021/05/18 17:43:27;;;;;;;0.98;0.88;;;16.10;78.80;;;;;;5096093;28;20023;-78